createdAt,value
2024-05-09T00:00:57.948Z,3.50
2024-05-09T00:01:57.929Z,3.40
2024-05-09T00:02:57.880Z,3.10
2024-05-09T00:03:57.917Z,3.20
2024-05-09T00:04:57.949Z,3.20
2024-05-09T00:05:57.889Z,3.40
2024-05-09T00:06:57.872Z,3.40
2024-05-09T00:07:57.859Z,3.70
2024-05-09T00:08:57.796Z,3.60
2024-05-09T00:09:57.859Z,3.50
2024-05-09T00:10:57.895Z,3.40
2024-05-09T00:11:57.944Z,3.80
2024-05-09T00:12:57.777Z,3.50
2024-05-09T00:13:57.774Z,3.40
2024-05-09T00:14:57.917Z,3.20
2024-05-09T00:15:58.203Z,3.30
2024-05-09T00:16:57.696Z,3.30
2024-05-09T00:17:57.780Z,3.40
2024-05-09T00:18:57.890Z,3.80
2024-05-09T00:19:57.678Z,3.80
2024-05-09T00:20:57.833Z,3.70
2024-05-09T00:21:57.653Z,3.40
2024-05-09T00:22:57.687Z,3.50
2024-05-09T00:23:57.613Z,4.00
2024-05-09T00:24:58.502Z,4.40
2024-05-09T00:25:57.616Z,3.90
2024-05-09T00:26:57.597Z,3.20
2024-05-09T00:27:57.560Z,3.50
2024-05-09T00:28:57.609Z,3.90
2024-05-09T00:29:57.531Z,4.20
2024-05-09T00:30:57.507Z,4.10
2024-05-09T00:31:57.648Z,4.20
2024-05-09T00:32:57.703Z,4.50
2024-05-09T00:33:57.961Z,3.90
2024-05-09T00:34:57.620Z,4.10
2024-05-09T00:35:57.490Z,4.10
2024-05-09T00:36:57.465Z,4.20
2024-05-09T00:37:57.504Z,4.20
2024-05-09T00:38:57.443Z,3.80
2024-05-09T00:39:57.412Z,4.20
2024-05-09T00:40:57.468Z,4.00
2024-05-09T00:41:57.400Z,4.40
2024-05-09T00:42:57.396Z,4.00
2024-05-09T00:43:57.412Z,4.00
2024-05-09T00:44:57.375Z,3.80
2024-05-09T00:45:57.333Z,3.40
2024-05-09T00:46:57.327Z,4.30
2024-05-09T00:47:57.604Z,3.10
2024-05-09T00:48:57.482Z,3.40
2024-05-09T00:49:57.302Z,3.40
2024-05-09T00:50:57.360Z,3.30
2024-05-09T00:51:57.246Z,2.90
2024-05-09T00:52:57.252Z,3.20
2024-05-09T00:53:57.266Z,3.30
2024-05-09T00:54:57.202Z,3.50
2024-05-09T00:55:57.802Z,3.40
2024-05-09T00:56:57.199Z,4.10
2024-05-09T00:57:57.180Z,4.30
2024-05-09T00:58:57.162Z,4.40
2024-05-09T00:59:57.174Z,4.70
2024-05-09T01:00:57.176Z,3.70
2024-05-09T01:01:57.193Z,3.60
2024-05-09T01:02:57.170Z,3.50
2024-05-09T01:03:57.265Z,3.50
2024-05-09T01:04:57.167Z,3.90
2024-05-09T01:05:57.096Z,4.00
2024-05-09T01:06:57.048Z,3.40
2024-05-09T01:07:57.160Z,2.80
2024-05-09T01:08:57.022Z,3.60
2024-05-09T01:09:57.031Z,3.60
2024-05-09T01:10:57.061Z,3.00
2024-05-09T01:11:57.100Z,3.70
2024-05-09T01:12:57.144Z,3.40
2024-05-09T01:13:57.016Z,3.60
2024-05-09T01:14:56.983Z,4.00
2024-05-09T01:15:56.932Z,4.10
2024-05-09T01:16:56.960Z,3.90
2024-05-09T01:17:57.452Z,3.60
2024-05-09T01:18:57.002Z,3.10
2024-05-09T01:19:56.991Z,4.60
2024-05-09T01:20:56.950Z,3.70
2024-05-09T01:21:56.960Z,4.00
2024-05-09T01:22:56.868Z,3.70
2024-05-09T01:23:57.791Z,3.20
2024-05-09T01:24:56.821Z,3.30
2024-05-09T01:25:58.355Z,3.50
2024-05-09T01:26:56.789Z,3.90
2024-05-09T01:27:56.770Z,3.80
2024-05-09T01:28:56.799Z,3.90
2024-05-09T01:29:56.964Z,3.60
2024-05-09T01:30:56.770Z,3.30
2024-05-09T01:31:56.786Z,4.00
2024-05-09T01:32:56.920Z,3.20
2024-05-09T01:33:56.814Z,3.50
2024-05-09T01:34:56.796Z,3.20
2024-05-09T01:35:56.694Z,3.10
2024-05-09T01:36:56.677Z,3.20
2024-05-09T01:37:56.748Z,3.00
2024-05-09T01:38:56.663Z,2.70
2024-05-09T01:39:57.493Z,2.40
2024-05-09T01:40:56.730Z,2.80
2024-05-09T01:41:56.636Z,3.00
2024-05-09T01:42:56.591Z,2.90
2024-05-09T01:43:56.655Z,2.60
2024-05-09T01:44:56.561Z,2.40
2024-05-09T01:45:56.571Z,2.40
2024-05-09T01:46:56.568Z,3.00
2024-05-09T01:47:56.780Z,2.20
2024-05-09T01:48:56.646Z,2.30
2024-05-09T01:49:56.564Z,2.40
2024-05-09T01:50:56.510Z,2.50
2024-05-09T01:51:56.455Z,2.50
2024-05-09T01:52:56.554Z,2.70
2024-05-09T01:53:56.447Z,2.60
2024-05-09T01:54:56.452Z,2.80
2024-05-09T01:55:56.437Z,2.80
2024-05-09T01:56:56.407Z,2.40
2024-05-09T01:57:56.388Z,2.80
2024-05-09T01:58:56.426Z,2.70
2024-05-09T01:59:56.390Z,2.50
2024-05-09T02:00:56.390Z,2.90
2024-05-09T02:01:57.747Z,2.60
2024-05-09T02:02:56.534Z,2.60
2024-05-09T02:03:56.497Z,2.90
2024-05-09T02:04:56.471Z,3.60
2024-05-09T02:05:56.405Z,3.90
2024-05-09T02:06:57.721Z,3.50
2024-05-09T02:07:56.348Z,3.50
2024-05-09T02:08:56.263Z,3.40
2024-05-09T02:09:56.219Z,3.50
2024-05-09T02:10:56.338Z,3.70
2024-05-09T02:11:56.327Z,3.90
2024-05-09T02:12:56.176Z,3.30
2024-05-09T02:13:56.172Z,3.00
2024-05-09T02:14:56.220Z,3.20
2024-05-09T02:15:56.151Z,3.80
2024-05-09T02:16:56.233Z,3.70
2024-05-09T02:17:56.321Z,4.10
2024-05-09T02:18:56.193Z,4.50
2024-05-09T02:19:56.122Z,3.60
2024-05-09T02:20:56.196Z,3.80
2024-05-09T02:21:56.076Z,3.60
2024-05-09T02:22:56.075Z,3.20
2024-05-09T02:23:56.058Z,3.40
2024-05-09T02:24:56.052Z,3.50
2024-05-09T02:25:56.115Z,3.30
2024-05-09T02:26:56.023Z,3.20
2024-05-09T02:27:56.001Z,3.60
2024-05-09T02:28:56.105Z,4.30
2024-05-09T02:29:56.022Z,3.10
2024-05-09T02:30:55.998Z,3.00
2024-05-09T02:31:56.018Z,3.10
2024-05-09T02:32:56.085Z,2.90
2024-05-09T02:33:56.139Z,3.00
2024-05-09T02:34:56.011Z,3.20
2024-05-09T02:35:55.941Z,3.30
2024-05-09T02:36:55.901Z,3.50
2024-05-09T02:37:55.971Z,2.90
2024-05-09T02:38:55.888Z,3.40
2024-05-09T02:39:55.847Z,3.20
2024-05-09T02:40:55.875Z,3.20
2024-05-09T02:41:55.813Z,3.00
2024-05-09T02:42:55.843Z,3.00
2024-05-09T02:43:55.871Z,3.60
2024-05-09T02:44:55.787Z,3.60
2024-05-09T02:45:55.766Z,3.40
2024-05-09T02:46:55.797Z,3.70
2024-05-09T02:47:55.952Z,3.70
2024-05-09T02:48:55.844Z,4.30
2024-05-09T02:49:55.730Z,4.60
2024-05-09T02:50:55.754Z,3.60
2024-05-09T02:51:55.738Z,3.60
2024-05-09T02:52:55.813Z,3.20
2024-05-09T02:53:55.820Z,3.40
2024-05-09T02:54:55.730Z,3.80
2024-05-09T02:55:55.758Z,4.50
2024-05-09T02:56:55.643Z,3.50
2024-05-09T02:57:55.635Z,3.30
2024-05-09T02:58:55.712Z,3.70
2024-05-09T02:59:55.683Z,3.40
2024-05-09T03:00:55.633Z,3.20
2024-05-09T03:01:55.650Z,3.60
2024-05-09T03:02:55.669Z,3.20
2024-05-09T03:03:55.820Z,3.80
2024-05-09T03:04:55.732Z,3.30
2024-05-09T03:05:55.533Z,3.20
2024-05-09T03:06:55.647Z,3.70
2024-05-09T03:07:55.565Z,3.90
2024-05-09T03:08:55.486Z,3.70
2024-05-09T03:09:55.494Z,3.60
2024-05-09T03:10:55.588Z,4.80
2024-05-09T03:11:55.636Z,3.90
2024-05-09T03:12:55.417Z,3.40
2024-05-09T03:13:55.471Z,4.00
2024-05-09T03:14:55.405Z,4.30
2024-05-09T03:15:55.413Z,3.40
2024-05-09T03:16:55.542Z,3.90
2024-05-09T03:17:55.579Z,3.60
2024-05-09T03:18:55.586Z,3.90
2024-05-09T03:19:55.374Z,3.90
2024-05-09T03:20:55.444Z,3.60
2024-05-09T03:21:55.302Z,3.70
2024-05-09T03:22:56.928Z,4.00
2024-05-09T03:23:55.378Z,3.40
2024-05-09T03:24:55.261Z,3.70
2024-05-09T03:25:55.303Z,3.70
2024-05-09T03:26:55.250Z,3.60
2024-05-09T03:27:55.256Z,3.90
2024-05-09T03:28:55.287Z,3.80
2024-05-09T03:29:55.217Z,4.30
2024-05-09T03:30:55.186Z,3.40
2024-05-09T03:31:55.233Z,3.70
2024-05-09T03:32:55.318Z,4.30
2024-05-09T03:33:55.255Z,4.30
2024-05-09T03:34:55.178Z,3.60
2024-05-09T03:35:55.156Z,3.80
2024-05-09T03:36:55.112Z,3.80
2024-05-09T03:37:55.189Z,3.50
2024-05-09T03:38:55.097Z,3.60
2024-05-09T03:39:55.097Z,3.70
2024-05-09T03:40:55.099Z,4.20
2024-05-09T03:41:55.040Z,3.50
2024-05-09T03:42:55.038Z,4.20
2024-05-09T03:43:55.060Z,4.00
2024-05-09T03:44:55.013Z,4.10
2024-05-09T03:45:55.048Z,3.90
2024-05-09T03:46:55.104Z,4.30
2024-05-09T03:47:55.280Z,4.00
2024-05-09T03:48:55.109Z,3.60
2024-05-09T03:49:54.989Z,4.10
2024-05-09T03:50:55.024Z,3.60
2024-05-09T03:51:54.924Z,4.20
2024-05-09T03:52:54.955Z,4.00
2024-05-09T03:53:54.930Z,4.20
2024-05-09T03:54:54.877Z,4.60
2024-05-09T03:55:54.914Z,3.90
2024-05-09T03:56:54.867Z,5.20
2024-05-09T03:57:54.839Z,4.50
2024-05-09T03:58:54.901Z,4.70
2024-05-09T03:59:54.816Z,4.10
2024-05-09T04:00:54.837Z,5.00
2024-05-09T04:01:54.891Z,4.40
2024-05-09T04:02:54.885Z,5.10
2024-05-09T04:03:54.861Z,4.60
2024-05-09T04:04:54.863Z,4.60
2024-05-09T04:05:54.748Z,4.30
2024-05-09T04:06:54.781Z,5.00
2024-05-09T04:07:54.806Z,5.00
2024-05-09T04:08:54.761Z,5.20
2024-05-09T04:09:54.710Z,4.50
2024-05-09T04:10:54.750Z,5.40
2024-05-09T04:11:54.889Z,4.70
2024-05-09T04:12:54.663Z,4.40
2024-05-09T04:13:54.670Z,4.70
2024-05-09T04:14:54.615Z,4.70
2024-05-09T04:15:54.609Z,6.00
2024-05-09T04:16:54.732Z,5.40
2024-05-09T04:17:54.811Z,5.30
2024-05-09T04:18:54.683Z,5.60
2024-05-09T04:19:54.655Z,5.70
2024-05-09T04:20:54.576Z,5.10
2024-05-09T04:21:54.531Z,4.80
2024-05-09T04:22:54.602Z,4.80
2024-05-09T04:23:54.503Z,5.40
2024-05-09T04:24:54.513Z,5.90
2024-05-09T04:25:54.533Z,6.00
2024-05-09T04:26:54.474Z,5.60
2024-05-09T04:27:54.520Z,5.90
2024-05-09T04:28:54.461Z,5.40
2024-05-09T04:29:54.438Z,5.20
2024-05-09T04:30:54.438Z,5.60
2024-05-09T04:31:54.566Z,5.10
2024-05-09T04:32:54.735Z,5.90
2024-05-09T04:33:54.579Z,5.80
2024-05-09T04:34:54.394Z,5.20
2024-05-09T04:35:54.354Z,5.40
2024-05-09T04:36:54.342Z,4.60
2024-05-09T04:37:54.392Z,5.70
2024-05-09T04:38:54.315Z,5.30
2024-05-09T04:39:54.346Z,6.20
2024-05-09T04:40:54.334Z,5.50
2024-05-09T04:41:54.271Z,7.50
2024-05-09T04:42:54.273Z,6.40
2024-05-09T04:43:54.315Z,4.90
2024-05-09T04:44:56.502Z,6.20
2024-05-09T04:45:54.237Z,5.60
2024-05-09T04:46:54.256Z,5.10
2024-05-09T04:47:54.346Z,6.50
2024-05-09T04:48:54.318Z,5.10
2024-05-09T04:49:54.576Z,6.30
2024-05-09T04:50:54.251Z,5.50
2024-05-09T04:51:54.209Z,5.40
2024-05-09T04:52:54.396Z,5.10
2024-05-09T04:53:54.158Z,5.40
2024-05-09T04:54:57.554Z,5.30
2024-05-09T04:55:54.291Z,4.50
2024-05-09T04:56:54.144Z,5.00
2024-05-09T04:57:54.118Z,5.80
2024-05-09T04:58:54.212Z,5.30
2024-05-09T04:59:54.260Z,5.10
2024-05-09T05:00:54.219Z,5.20
2024-05-09T05:01:54.383Z,4.90
2024-05-09T05:02:54.320Z,5.00
2024-05-09T05:03:55.872Z,5.40
2024-05-09T05:04:54.125Z,7.40
2024-05-09T05:05:54.040Z,5.50
2024-05-09T05:06:54.003Z,5.80
2024-05-09T05:07:53.970Z,5.10
2024-05-09T05:08:53.917Z,5.00
2024-05-09T05:09:53.955Z,6.20
2024-05-09T05:10:54.041Z,5.40
2024-05-09T05:11:53.981Z,6.20
2024-05-09T05:12:53.923Z,5.70
2024-05-09T05:13:53.930Z,6.30
2024-05-09T05:14:53.856Z,6.40
2024-05-09T05:15:53.894Z,7.20
2024-05-09T05:16:53.885Z,6.70
2024-05-09T05:17:53.950Z,5.50
2024-05-09T05:18:54.910Z,6.10
2024-05-09T05:19:53.917Z,6.70
2024-05-09T05:20:53.829Z,5.60
2024-05-09T05:21:53.853Z,6.40
2024-05-09T05:22:53.796Z,6.30
2024-05-09T05:23:53.788Z,6.30
2024-05-09T05:24:53.744Z,6.40
2024-05-09T05:25:54.425Z,5.10
2024-05-09T05:26:53.713Z,6.50
2024-05-09T05:27:53.756Z,6.10
2024-05-09T05:28:53.775Z,6.50
2024-05-09T05:29:53.654Z,5.60
2024-05-09T05:30:53.658Z,5.10
2024-05-09T05:31:53.709Z,5.70
2024-05-09T05:32:53.737Z,6.30
2024-05-09T05:33:53.764Z,5.80
2024-05-09T05:34:53.636Z,5.90
2024-05-09T05:35:53.578Z,5.00
2024-05-09T05:36:53.563Z,5.60
2024-05-09T05:37:53.567Z,7.40
2024-05-09T05:38:53.560Z,8.30
2024-05-09T05:39:53.542Z,6.50
2024-05-09T05:40:53.582Z,6.90
2024-05-09T05:41:53.513Z,6.00
2024-05-09T05:42:53.504Z,4.30
2024-05-09T05:43:53.543Z,5.40
2024-05-09T05:44:53.487Z,5.50
2024-05-09T05:45:53.478Z,5.80
2024-05-09T05:46:53.518Z,5.90
2024-05-09T05:47:53.564Z,5.50
2024-05-09T05:48:53.605Z,5.90
2024-05-09T05:49:53.530Z,5.60
2024-05-09T05:50:53.492Z,6.10
2024-05-09T05:51:53.383Z,5.80
2024-05-09T05:52:53.385Z,5.50
2024-05-09T05:53:53.359Z,5.70
2024-05-09T05:54:53.375Z,5.30
2024-05-09T05:55:53.403Z,6.10
2024-05-09T05:56:53.338Z,5.90
2024-05-09T05:57:53.316Z,5.70
2024-05-09T05:58:53.319Z,5.50
2024-05-09T05:59:53.316Z,5.90
2024-05-09T06:00:53.502Z,5.60
2024-05-09T06:01:53.332Z,6.10
2024-05-09T06:02:53.415Z,6.00
2024-05-09T06:03:53.448Z,6.20
2024-05-09T06:04:53.336Z,5.20
2024-05-09T06:05:53.284Z,6.10
2024-05-09T06:06:53.324Z,5.40
2024-05-09T06:07:53.257Z,5.90
2024-05-09T06:08:53.293Z,5.50
2024-05-09T06:09:53.210Z,5.80
2024-05-09T06:10:53.253Z,5.70
2024-05-09T06:11:53.264Z,5.10
2024-05-09T06:12:53.155Z,6.10
2024-05-09T06:13:53.194Z,5.50
2024-05-09T06:14:53.091Z,5.80
2024-05-09T06:15:53.122Z,5.50
2024-05-09T06:16:54.697Z,6.70
2024-05-09T06:17:53.250Z,5.80
2024-05-09T06:18:53.298Z,6.20
2024-05-09T06:19:53.349Z,5.80
2024-05-09T06:20:53.071Z,6.30
2024-05-09T06:21:53.017Z,6.30
2024-05-09T06:22:53.157Z,5.30
2024-05-09T06:23:52.991Z,5.60
2024-05-09T06:24:52.975Z,5.40
2024-05-09T06:25:52.984Z,6.60
2024-05-09T06:26:52.952Z,6.60
2024-05-09T06:27:53.021Z,6.10
2024-05-09T06:28:52.994Z,5.80
2024-05-09T06:29:52.896Z,6.10
2024-05-09T06:30:52.907Z,6.60
2024-05-09T06:31:52.864Z,6.70
2024-05-09T06:32:53.712Z,6.40
2024-05-09T06:33:53.047Z,6.70
2024-05-09T06:34:53.023Z,6.60
2024-05-09T06:35:53.243Z,6.90
2024-05-09T06:36:52.856Z,7.00
2024-05-09T06:37:52.878Z,6.60
2024-05-09T06:38:52.849Z,6.70
2024-05-09T06:39:52.753Z,7.20
2024-05-09T06:40:52.795Z,6.30
2024-05-09T06:41:52.731Z,7.00
2024-05-09T06:42:52.746Z,7.10
2024-05-09T06:43:52.800Z,7.00
2024-05-09T06:44:52.945Z,6.70
2024-05-09T06:45:52.961Z,6.60
2024-05-09T06:46:53.626Z,6.80
2024-05-09T06:47:52.873Z,6.90
2024-05-09T06:48:53.226Z,6.90
2024-05-09T06:49:52.834Z,6.90
2024-05-09T06:50:52.807Z,7.60
2024-05-09T06:51:52.682Z,7.50
2024-05-09T06:52:52.716Z,7.00
2024-05-09T06:53:52.981Z,6.70
2024-05-09T06:54:52.611Z,7.20
2024-05-09T06:55:52.786Z,7.40
2024-05-09T06:56:52.693Z,7.40
2024-05-09T06:57:52.624Z,7.60
2024-05-09T06:58:52.598Z,7.60
2024-05-09T06:59:52.584Z,7.30
2024-05-09T07:00:52.704Z,7.90
2024-05-09T07:01:52.542Z,7.90
2024-05-09T07:02:52.630Z,7.50
2024-05-09T07:03:52.677Z,7.80
2024-05-09T07:04:52.941Z,7.20
2024-05-09T07:05:52.612Z,7.50
2024-05-09T07:06:52.432Z,7.40
2024-05-09T07:07:53.355Z,7.50
2024-05-09T07:08:52.722Z,7.40
2024-05-09T07:09:52.437Z,7.10
2024-05-09T07:10:52.600Z,7.60
2024-05-09T07:11:52.471Z,7.30
2024-05-09T07:12:52.343Z,7.10
2024-05-09T07:13:52.420Z,7.30
2024-05-09T07:14:52.506Z,7.10
2024-05-09T07:15:52.339Z,7.00
2024-05-09T07:16:52.413Z,7.10
2024-05-09T07:17:52.645Z,7.60
2024-05-09T07:18:52.698Z,7.20
2024-05-09T07:19:52.488Z,7.10
2024-05-09T07:20:52.318Z,7.50
2024-05-09T07:21:52.374Z,6.50
2024-05-09T07:22:52.352Z,7.60
2024-05-09T07:23:52.397Z,7.40
2024-05-09T07:24:52.507Z,7.10
2024-05-09T07:25:52.294Z,6.90
2024-05-09T07:26:52.375Z,7.00
2024-05-09T07:27:52.309Z,7.30
2024-05-09T07:28:52.350Z,7.40
2024-05-09T07:29:52.805Z,7.90
2024-05-09T07:30:52.110Z,7.40
2024-05-09T07:31:52.156Z,7.60
2024-05-09T07:32:52.201Z,7.90
2024-05-09T07:33:52.154Z,7.40
2024-05-09T07:34:52.095Z,7.40
2024-05-09T07:35:52.217Z,7.60
2024-05-09T07:36:52.016Z,7.40
2024-05-09T07:37:52.062Z,7.60
2024-05-09T07:38:52.062Z,6.70
2024-05-09T07:39:52.022Z,8.00
2024-05-09T07:40:52.204Z,8.10
2024-05-09T07:41:52.748Z,6.30
2024-05-09T07:42:52.745Z,7.70
2024-05-09T07:43:52.818Z,7.60
2024-05-09T07:44:52.008Z,7.00
2024-05-09T07:45:54.539Z,7.50
2024-05-09T07:48:13.594Z,7.20
2024-05-09T07:51:32.710Z,6.90
2024-05-09T07:53:37.347Z,7.00
2024-05-09T07:53:51.965Z,6.80
2024-05-09T07:54:24.196Z,7.00
2024-05-09T07:55:24.080Z,6.30
2024-05-09T07:56:24.910Z,7.50
2024-05-09T07:57:23.979Z,7.80
2024-05-09T07:58:24.713Z,6.90
2024-05-09T07:59:23.996Z,6.60
2024-05-09T08:00:30.896Z,7.20
2024-05-09T08:01:24.002Z,6.60
2024-05-09T08:02:24.041Z,7.10
2024-05-09T08:03:24.306Z,6.40
2024-05-09T08:04:26.584Z,5.90
2024-05-09T08:05:24.300Z,6.20
2024-05-09T08:06:23.977Z,6.40
2024-05-09T08:07:24.002Z,6.00
2024-05-09T08:08:23.824Z,5.70
2024-05-09T08:09:23.811Z,5.90
2024-05-09T08:10:28.556Z,5.60
2024-05-09T08:11:24.145Z,6.10
2024-05-09T08:12:23.962Z,5.90
2024-05-09T08:13:23.819Z,6.10
2024-05-09T08:14:23.773Z,5.50
2024-05-09T08:15:23.927Z,5.60
2024-05-09T08:16:23.988Z,5.50
2024-05-09T08:17:23.910Z,5.20
2024-05-09T08:18:23.887Z,5.10
2024-05-09T08:19:23.900Z,5.70
2024-05-09T08:20:30.957Z,4.90
2024-05-09T08:21:23.721Z,5.00
2024-05-09T08:22:23.888Z,5.00
2024-05-09T08:23:23.783Z,4.40
2024-05-09T08:24:23.653Z,4.70
2024-05-09T08:25:23.695Z,4.70
2024-05-09T08:26:23.662Z,5.50
2024-05-09T08:27:23.730Z,4.80
2024-05-09T08:28:23.653Z,4.50
2024-05-09T08:29:23.826Z,4.30
2024-05-09T08:30:30.138Z,4.10
2024-05-09T08:31:23.641Z,4.00
2024-05-09T08:32:23.675Z,4.50
2024-05-09T08:33:23.770Z,4.30
2024-05-09T08:34:23.756Z,4.00
2024-05-09T08:35:23.778Z,4.60
2024-05-09T08:36:23.542Z,5.00
2024-05-09T08:37:27.650Z,5.20
2024-05-09T08:38:23.648Z,4.90
2024-05-09T08:39:23.749Z,4.00
2024-05-09T08:40:30.883Z,4.50
2024-05-09T08:41:23.436Z,4.70
2024-05-09T08:42:23.609Z,5.20
2024-05-09T08:43:23.746Z,4.30
2024-05-09T08:44:23.471Z,4.50
2024-05-09T08:45:23.418Z,4.60
2024-05-09T08:46:23.439Z,4.20
2024-05-09T08:47:23.418Z,4.80
2024-05-09T08:48:23.528Z,3.90
2024-05-09T08:49:23.485Z,4.50
2024-05-09T08:50:32.154Z,4.10
2024-05-09T08:51:23.314Z,4.20
2024-05-09T08:52:23.292Z,4.60
2024-05-09T08:53:23.339Z,4.60
2024-05-09T08:54:23.266Z,4.70
2024-05-09T08:55:23.836Z,4.10
2024-05-09T08:56:23.333Z,4.00
2024-05-09T08:57:23.211Z,4.40
2024-05-09T08:58:23.303Z,3.70
2024-05-09T08:59:23.734Z,3.80
2024-05-09T09:00:33.446Z,3.60
2024-05-09T09:01:23.411Z,4.40
2024-05-09T09:02:23.467Z,4.40
2024-05-09T09:03:23.189Z,4.20
2024-05-09T09:04:23.473Z,3.40
2024-05-09T09:05:23.369Z,3.80
2024-05-09T09:06:23.279Z,4.10
2024-05-09T09:07:23.217Z,3.90
2024-05-09T09:08:23.157Z,4.00
2024-05-09T09:09:22.994Z,4.30
2024-05-09T09:10:29.743Z,4.50
2024-05-09T09:11:23.220Z,3.50
2024-05-09T09:12:23.057Z,3.50
2024-05-09T09:13:23.156Z,3.50
2024-05-09T09:14:22.955Z,3.50
2024-05-09T09:15:23.332Z,3.60
2024-05-09T09:16:23.295Z,4.00
2024-05-09T09:17:23.280Z,3.30
2024-05-09T09:18:23.133Z,3.40
2024-05-09T09:19:23.207Z,3.30
2024-05-09T09:20:28.708Z,3.40
2024-05-09T09:21:22.968Z,3.20
2024-05-09T09:22:22.946Z,3.30
2024-05-09T09:23:22.950Z,3.50
2024-05-09T09:24:22.877Z,3.10
2024-05-09T09:25:22.962Z,3.70
2024-05-09T09:26:22.829Z,3.60
2024-05-09T09:27:22.931Z,3.20
2024-05-09T09:28:23.062Z,3.10
2024-05-09T09:29:22.803Z,3.30
2024-05-09T09:30:34.451Z,2.90
2024-05-09T09:31:22.945Z,3.60
2024-05-09T09:32:22.900Z,2.80
2024-05-09T09:33:23.030Z,3.40
2024-05-09T09:34:22.930Z,3.30
2024-05-09T09:35:23.053Z,3.30
2024-05-09T09:36:22.728Z,3.00
2024-05-09T09:37:22.772Z,3.10
2024-05-09T09:38:22.642Z,2.90
2024-05-09T09:39:22.614Z,3.10
2024-05-09T09:40:29.295Z,3.10
2024-05-09T09:41:22.614Z,3.80
2024-05-09T09:42:22.589Z,2.80
2024-05-09T09:43:23.253Z,3.30
2024-05-09T09:44:22.536Z,2.90
2024-05-09T09:45:22.591Z,3.20
2024-05-09T09:46:22.523Z,3.10
2024-05-09T09:47:22.533Z,3.20
2024-05-09T09:48:23.302Z,3.20
2024-05-09T09:49:22.507Z,2.90
2024-05-09T09:50:27.948Z,2.90
2024-05-09T09:51:22.487Z,2.90
2024-05-09T09:52:22.555Z,2.90
2024-05-09T09:53:22.452Z,3.10
2024-05-09T09:54:22.701Z,3.00
2024-05-09T09:55:22.539Z,3.30
2024-05-09T09:56:22.586Z,3.10
2024-05-09T09:57:22.445Z,3.50
2024-05-09T09:58:22.699Z,3.50
2024-05-09T09:59:22.560Z,3.40
2024-05-09T10:00:27.402Z,3.30
2024-05-09T10:01:22.799Z,3.90
2024-05-09T10:02:22.782Z,3.10
2024-05-09T10:03:22.529Z,3.60
2024-05-09T10:04:22.496Z,3.90
2024-05-09T10:05:22.613Z,4.30
2024-05-09T10:06:22.492Z,3.80
2024-05-09T10:07:22.358Z,3.70
2024-05-09T10:08:22.268Z,3.30
2024-05-09T10:09:22.254Z,3.30
2024-05-09T10:10:29.900Z,3.00
2024-05-09T10:11:22.503Z,3.30
2024-05-09T10:12:22.298Z,3.80
2024-05-09T10:13:22.378Z,3.10
2024-05-09T10:14:22.405Z,2.80
2024-05-09T10:15:22.261Z,2.80
2024-05-09T10:16:22.393Z,2.70
2024-05-09T10:17:22.141Z,2.50
2024-05-09T10:18:22.163Z,2.60
2024-05-09T10:19:22.131Z,2.70
2024-05-09T10:20:27.745Z,2.50
2024-05-09T10:21:22.087Z,2.10
2024-05-09T10:22:22.116Z,2.20
2024-05-09T10:23:22.132Z,2.00
2024-05-09T10:24:22.049Z,2.10
2024-05-09T10:25:22.242Z,2.40
2024-05-09T10:26:22.102Z,2.50
2024-05-09T10:27:21.979Z,2.90
2024-05-09T10:28:21.976Z,2.40
2024-05-09T10:29:21.964Z,2.20
2024-05-09T10:31:21.982Z,2.20
2024-05-09T10:32:21.943Z,2.20
2024-05-09T10:33:21.981Z,2.30
2024-05-09T10:34:22.250Z,1.90
2024-05-09T10:35:21.880Z,1.80
2024-05-09T10:36:21.882Z,2.80
2024-05-09T10:37:21.952Z,1.70
2024-05-09T10:38:21.824Z,1.80
2024-05-09T10:39:21.850Z,1.80
2024-05-09T10:40:26.610Z,2.00
2024-05-09T10:41:21.866Z,1.80
2024-05-09T10:42:21.893Z,2.30
2024-05-09T10:43:21.887Z,1.70
2024-05-09T10:44:21.778Z,1.80
2024-05-09T10:45:21.735Z,1.70
2024-05-09T10:46:22.021Z,2.00
2024-05-09T10:47:21.784Z,1.70
2024-05-09T10:48:21.783Z,1.90
2024-05-09T10:49:21.774Z,1.80
2024-05-09T10:50:28.183Z,1.60
2024-05-09T10:51:21.700Z,1.40
2024-05-09T10:52:21.841Z,1.70
2024-05-09T10:53:21.650Z,1.70
2024-05-09T10:54:21.642Z,1.40
2024-05-09T10:55:22.070Z,1.80
2024-05-09T10:56:21.618Z,1.80
2024-05-09T10:57:21.576Z,1.80
2024-05-09T10:58:21.639Z,2.00
2024-05-09T10:59:21.581Z,1.80
2024-05-09T11:00:27.740Z,1.90
2024-05-09T11:01:21.678Z,1.70
2024-05-09T11:02:21.632Z,1.40
2024-05-09T11:03:21.626Z,1.50
2024-05-09T11:04:21.776Z,1.70
2024-05-09T11:05:21.884Z,1.40
2024-05-09T11:06:21.481Z,1.70
2024-05-09T11:07:21.621Z,1.20
2024-05-09T11:08:21.451Z,1.20
2024-05-09T11:09:21.453Z,1.20
2024-05-09T11:10:27.736Z,0.90
2024-05-09T11:11:21.879Z,0.90
2024-05-09T11:12:23.536Z,1.00
2024-05-09T11:13:21.430Z,1.00
2024-05-09T11:14:21.403Z,0.90
2024-05-09T11:15:21.356Z,1.00
2024-05-09T11:16:21.785Z,1.10
2024-05-09T11:17:21.489Z,1.20
2024-05-09T11:18:24.639Z,1.20
2024-05-09T11:19:21.446Z,1.20
2024-05-09T11:20:29.086Z,1.20
2024-05-09T11:21:21.428Z,1.00
2024-05-09T11:22:21.365Z,1.00
2024-05-09T11:23:21.249Z,0.90
2024-05-09T11:24:21.295Z,1.10
2024-05-09T11:25:21.263Z,1.20
2024-05-09T11:26:21.233Z,1.20
2024-05-09T11:27:21.207Z,1.20
2024-05-09T11:28:21.272Z,1.40
2024-05-09T11:29:21.241Z,1.40
2024-05-09T11:30:26.996Z,1.20
2024-05-09T11:31:21.488Z,1.10
2024-05-09T11:32:21.190Z,1.30
2024-05-09T11:33:21.159Z,1.10
2024-05-09T11:34:21.169Z,1.10
2024-05-09T11:35:21.108Z,1.00
2024-05-09T11:36:21.099Z,1.10
2024-05-09T11:37:21.147Z,0.90
2024-05-09T11:38:21.115Z,1.10
2024-05-09T11:39:21.180Z,1.10
2024-05-09T11:40:25.639Z,1.10
2024-05-09T11:41:21.036Z,1.00
2024-05-09T11:42:21.007Z,1.00
2024-05-09T11:43:21.341Z,1.20
2024-05-09T11:44:21.029Z,1.00
2024-05-09T11:45:21.121Z,0.80
2024-05-09T11:46:21.061Z,1.10
2024-05-09T11:47:21.077Z,1.20
2024-05-09T11:48:21.125Z,1.00
2024-05-09T11:49:23.128Z,1.50
2024-05-09T11:50:27.203Z,1.00
2024-05-09T11:51:20.889Z,0.90
2024-05-09T11:52:20.939Z,1.30
2024-05-09T11:53:20.939Z,0.90
2024-05-09T11:54:20.839Z,0.90
2024-05-09T11:55:22.050Z,1.10
2024-05-09T11:56:20.850Z,1.00
2024-05-09T11:57:20.811Z,1.00
2024-05-09T11:58:20.981Z,1.00
2024-05-09T11:59:20.789Z,1.00
2024-05-09T12:00:29.244Z,1.00
2024-05-09T12:01:22.033Z,1.10
2024-05-09T12:02:20.888Z,1.00
2024-05-09T12:03:20.835Z,1.60
2024-05-09T12:04:20.883Z,1.20
2024-05-09T12:05:21.102Z,1.20
2024-05-09T12:06:20.699Z,1.10
2024-05-09T12:07:20.745Z,1.10
2024-05-09T12:08:20.688Z,1.10
2024-05-09T12:09:20.693Z,1.30
2024-05-09T12:10:26.040Z,1.10
2024-05-09T12:11:20.689Z,1.30
2024-05-09T12:12:20.627Z,1.30
2024-05-09T12:13:20.693Z,1.10
2024-05-09T12:14:20.651Z,1.10
2024-05-09T12:15:20.582Z,1.00
2024-05-09T12:16:20.805Z,1.20
2024-05-09T12:17:20.804Z,1.50
2024-05-09T12:18:20.571Z,1.00
2024-05-09T12:19:20.667Z,1.10
2024-05-09T12:20:28.569Z,1.00
2024-05-09T12:21:20.506Z,1.10
2024-05-09T12:22:20.530Z,1.10
2024-05-09T12:23:20.498Z,1.10
2024-05-09T12:24:20.499Z,1.20
2024-05-09T12:25:20.532Z,1.20
2024-05-09T12:26:20.572Z,1.10
2024-05-09T12:27:20.430Z,1.30
2024-05-09T12:28:20.470Z,1.10
2024-05-09T12:29:20.426Z,1.20
2024-05-09T12:30:32.263Z,1.40
2024-05-09T12:31:20.435Z,1.20
2024-05-09T12:32:20.445Z,1.10
2024-05-09T12:33:20.617Z,1.30
2024-05-09T12:34:20.394Z,1.00
2024-05-09T12:35:20.388Z,1.20
2024-05-09T12:36:20.364Z,1.30
2024-05-09T12:37:20.407Z,1.20
2024-05-09T12:38:20.290Z,1.30
2024-05-09T12:39:20.285Z,1.40
2024-05-09T12:40:26.856Z,1.60
2024-05-09T12:41:20.247Z,1.90
2024-05-09T12:42:27.140Z,2.30
2024-05-09T12:43:20.289Z,1.80
2024-05-09T12:44:20.236Z,1.40
2024-05-09T12:45:20.197Z,1.30
2024-05-09T12:46:20.306Z,1.40
2024-05-09T12:47:20.282Z,1.30
2024-05-09T12:48:20.277Z,1.40
2024-05-09T12:49:20.613Z,1.20
2024-05-09T12:50:29.127Z,1.20
2024-05-09T12:51:20.127Z,1.10
2024-05-09T12:52:20.263Z,1.10
2024-05-09T12:53:20.142Z,1.30
2024-05-09T12:54:20.077Z,1.10
2024-05-09T12:55:20.132Z,1.50
2024-05-09T12:56:20.135Z,1.50
2024-05-09T12:57:20.051Z,1.30
2024-05-09T12:58:20.112Z,1.20
2024-05-09T12:59:20.010Z,1.00
2024-05-09T13:00:27.407Z,1.30
2024-05-09T13:01:20.058Z,1.30
2024-05-09T13:02:20.154Z,1.00
2024-05-09T13:03:20.412Z,1.30
2024-05-09T13:04:20.129Z,1.60
2024-05-09T13:05:20.053Z,1.50
2024-05-09T13:06:19.950Z,1.20
2024-05-09T13:07:20.010Z,1.20
2024-05-09T13:08:19.932Z,1.50
2024-05-09T13:09:19.913Z,1.40
2024-05-09T13:10:25.781Z,1.10
2024-05-09T13:11:20.019Z,1.40
2024-05-09T13:12:21.517Z,1.60
2024-05-09T13:13:20.141Z,1.40
2024-05-09T13:14:19.870Z,1.90
2024-05-09T13:15:19.826Z,1.80
2024-05-09T13:16:19.977Z,1.70
2024-05-09T13:17:19.951Z,1.30
2024-05-09T13:18:19.930Z,1.60
2024-05-09T13:19:19.922Z,2.20
2024-05-09T13:20:28.962Z,2.20
2024-05-09T13:21:19.792Z,1.50
2024-05-09T13:22:19.829Z,1.50
2024-05-09T13:23:19.702Z,1.60